sensor_id;sensor_type;location;lat;lon;timestamp;pressure;altitude;pressure_sealevel;temperature;humidity
55932;BME280;41837;55.700;37.984;2023-08-17T00:00:56;100916.44;;;13.22;100.00
55932;BME280;41837;55.700;37.984;2023-08-17T00:03:22;100917.50;;;13.17;100.00
55932;BME280;41837;55.700;37.984;2023-08-17T00:05:48;100910.56;;;13.16;100.00
55932;BME280;41837;55.700;37.984;2023-08-17T00:08:14;100907.06;;;13.15;100.00
55932;BME280;41837;55.700;37.984;2023-08-17T00:10:40;100911.59;;;13.10;100.00
55932;BME280;41837;55.700;37.984;2023-08-17T00:13:06;100914.47;;;13.04;100.00
55932;BME280;41837;55.700;37.984;2023-08-17T00:15:32;100923.19;;;13.04;100.00
55932;BME280;41837;55.700;37.984;2023-08-17T00:17:59;100924.03;;;13.05;100.00
55932;BME280;41837;55.700;37.984;2023-08-17T00:20:24;100923.09;;;13.07;100.00
55932;BME280;41837;55.700;37.984;2023-08-17T00:22:51;100917.09;;;13.04;100.00
55932;BME280;41837;55.700;37.984;2023-08-17T00:25:17;100927.69;;;13.01;100.00
55932;BME280;41837;55.700;37.984;2023-08-17T00:27:43;100930.34;;;12.99;100.00
55932;BME280;41837;55.700;37.984;2023-08-17T00:30:09;100922.47;;;12.99;100.00
55932;BME280;41837;55.700;37.984;2023-08-17T00:32:36;100925.06;;;13.01;100.00
55932;BME280;41837;55.700;37.984;2023-08-17T00:35:02;100927.19;;;12.90;100.00
55932;BME280;41837;55.700;37.984;2023-08-17T00:37:30;100935.22;;;12.85;100.00
55932;BME280;41837;55.700;37.984;2023-08-17T00:39:56;100928.22;;;12.85;100.00
55932;BME280;41837;55.700;37.984;2023-08-17T00:42:23;100919.63;;;12.80;100.00
55932;BME280;41837;55.700;37.984;2023-08-17T00:44:49;100937.03;;;12.83;100.00
55932;BME280;41837;55.700;37.984;2023-08-17T00:47:15;100931.78;;;12.83;100.00
55932;BME280;41837;55.700;37.984;2023-08-17T00:49:41;100930.88;;;12.84;100.00
55932;BME280;41837;55.700;37.984;2023-08-17T00:52:08;100926.72;;;12.78;100.00
55932;BME280;41837;55.700;37.984;2023-08-17T00:54:34;100925.88;;;12.76;100.00
55932;BME280;41837;55.700;37.984;2023-08-17T00:57:00;100936.38;;;12.76;100.00
55932;BME280;41837;55.700;37.984;2023-08-17T00:59:27;100939.22;;;12.70;100.00
55932;BME280;41837;55.700;37.984;2023-08-17T01:01:55;100947.78;;;12.75;100.00
55932;BME280;41837;55.700;37.984;2023-08-17T01:04:21;100944.31;;;12.75;100.00
55932;BME280;41837;55.700;37.984;2023-08-17T01:06:47;100941.84;;;12.70;100.00
55932;BME280;41837;55.700;37.984;2023-08-17T01:09:13;100940.13;;;12.69;100.00
55932;BME280;41837;55.700;37.984;2023-08-17T01:11:47;100946.47;;;12.62;100.00
55932;BME280;41837;55.700;37.984;2023-08-17T01:14:30;100938.75;;;12.57;100.00
55932;BME280;41837;55.700;37.984;2023-08-17T01:17:17;100941.41;;;12.56;100.00
55932;BME280;41837;55.700;37.984;2023-08-17T01:19:44;100938.00;;;12.54;100.00
55932;BME280;41837;55.700;37.984;2023-08-17T01:22:14;100941.53;;;12.53;100.00
55932;BME280;41837;55.700;37.984;2023-08-17T01:24:42;100938.75;;;12.57;100.00
55932;BME280;41837;55.700;37.984;2023-08-17T01:27:08;100935.19;;;12.60;100.00
55932;BME280;41837;55.700;37.984;2023-08-17T01:29:34;100936.16;;;12.56;100.00
55932;BME280;41837;55.700;37.984;2023-08-17T01:32:15;100932.97;;;12.47;100.00
55932;BME280;41837;55.700;37.984;2023-08-17T01:34:58;100930.44;;;12.44;100.00
55932;BME280;41837;55.700;37.984;2023-08-17T01:37:31;100939.16;;;12.45;100.00
55932;BME280;41837;55.700;37.984;2023-08-17T01:39:59;100939.94;;;12.47;100.00
55932;BME280;41837;55.700;37.984;2023-08-17T01:42:25;100940.81;;;12.47;100.00
55932;BME280;41837;55.700;37.984;2023-08-17T01:44:54;100943.31;;;12.50;100.00
55932;BME280;41837;55.700;37.984;2023-08-17T01:47:21;100940.72;;;12.50;100.00
55932;BME280;41837;55.700;37.984;2023-08-17T01:49:47;100926.66;;;12.53;100.00
55932;BME280;41837;55.700;37.984;2023-08-17T01:52:14;100940.91;;;12.44;100.00
55932;BME280;41837;55.700;37.984;2023-08-17T01:54:40;100947.09;;;12.42;100.00
55932;BME280;41837;55.700;37.984;2023-08-17T01:57:07;100941.00;;;12.41;100.00
55932;BME280;41837;55.700;37.984;2023-08-17T01:59:33;100940.03;;;12.44;100.00
55932;BME280;41837;55.700;37.984;2023-08-17T02:01:59;100945.25;;;12.45;100.00
55932;BME280;41837;55.700;37.984;2023-08-17T02:04:26;100942.97;;;12.35;100.00
55932;BME280;41837;55.700;37.984;2023-08-17T02:06:52;100952.56;;;12.36;100.00
55932;BME280;41837;55.700;37.984;2023-08-17T02:09:18;100949.94;;;12.36;100.00
55932;BME280;41837;55.700;37.984;2023-08-17T02:11:45;100944.03;;;12.29;100.00
55932;BME280;41837;55.700;37.984;2023-08-17T02:14:11;100946.44;;;12.35;100.00
55932;BME280;41837;55.700;37.984;2023-08-17T02:16:37;100942.13;;;12.34;100.00
55932;BME280;41837;55.700;37.984;2023-08-17T02:19:04;100949.94;;;12.36;100.00
55932;BME280;41837;55.700;37.984;2023-08-17T02:21:30;100950.88;;;12.33;100.00
55932;BME280;41837;55.700;37.984;2023-08-17T02:23:57;100955.19;;;12.36;100.00
55932;BME280;41837;55.700;37.984;2023-08-17T02:26:23;100954.13;;;12.41;100.00
55932;BME280;41837;55.700;37.984;2023-08-17T02:28:49;100958.34;;;12.45;100.00
55932;BME280;41837;55.700;37.984;2023-08-17T02:31:15;100956.66;;;12.44;100.00
55932;BME280;41837;55.700;37.984;2023-08-17T02:33:41;100958.31;;;12.47;100.00
55932;BME280;41837;55.700;37.984;2023-08-17T02:36:08;100959.94;;;12.51;100.00
55932;BME280;41837;55.700;37.984;2023-08-17T02:38:34;100964.13;;;12.57;100.00
55932;BME280;41837;55.700;37.984;2023-08-17T02:41:00;100963.00;;;12.64;100.00
55932;BME280;41837;55.700;37.984;2023-08-17T02:43:26;100961.06;;;12.71;100.00
55932;BME280;41837;55.700;37.984;2023-08-17T02:45:53;100965.19;;;12.78;100.00
55932;BME280;41837;55.700;37.984;2023-08-17T02:48:20;100946.69;;;12.82;100.00
55932;BME280;41837;55.700;37.984;2023-08-17T02:50:46;100958.69;;;12.90;100.00
55932;BME280;41837;55.700;37.984;2023-08-17T02:53:13;100951.72;;;12.88;100.00
55932;BME280;41837;55.700;37.984;2023-08-17T02:55:39;100957.47;;;13.00;100.00
55932;BME280;41837;55.700;37.984;2023-08-17T02:58:07;100959.00;;;14.05;100.00
55932;BME280;41837;55.700;37.984;2023-08-17T03:00:33;100953.56;;;15.39;100.00
55932;BME280;41837;55.700;37.984;2023-08-17T03:03:00;100935.66;;;16.42;100.00
55932;BME280;41837;55.700;37.984;2023-08-17T03:05:26;100898.94;;;17.42;100.00
55932;BME280;41837;55.700;37.984;2023-08-17T03:07:54;100867.25;;;18.22;100.00
55932;BME280;41837;55.700;37.984;2023-08-17T03:10:20;100833.69;;;18.97;100.00
55932;BME280;41837;55.700;37.984;2023-08-17T03:12:47;100829.00;;;19.87;100.00
55932;BME280;41837;55.700;37.984;2023-08-17T03:15:12;100820.75;;;19.92;100.00
55932;BME280;41837;55.700;37.984;2023-08-17T03:17:39;100812.59;;;20.35;100.00
55932;BME280;41837;55.700;37.984;2023-08-17T03:20:05;100805.47;;;20.76;100.00
55932;BME280;41837;55.700;37.984;2023-08-17T03:22:33;100801.59;;;21.18;100.00
55932;BME280;41837;55.700;37.984;2023-08-17T03:24:59;100800.56;;;21.58;100.00
55932;BME280;41837;55.700;37.984;2023-08-17T03:27:30;100798.75;;;21.58;100.00
55932;BME280;41837;55.700;37.984;2023-08-17T03:29:57;100794.59;;;21.91;100.00
55932;BME280;41837;55.700;37.984;2023-08-17T03:32:23;100801.97;;;21.88;100.00
55932;BME280;41837;55.700;37.984;2023-08-17T03:34:49;100804.91;;;22.56;100.00
55932;BME280;41837;55.700;37.984;2023-08-17T03:37:16;100794.84;;;22.70;100.00
55932;BME280;41837;55.700;37.984;2023-08-17T03:39:42;100800.13;;;23.28;100.00
55932;BME280;41837;55.700;37.984;2023-08-17T03:42:08;100800.69;;;23.66;100.00
55932;BME280;41837;55.700;37.984;2023-08-17T03:44:34;100799.63;;;23.35;100.00
55932;BME280;41837;55.700;37.984;2023-08-17T03:47:00;100797.97;;;23.77;100.00
55932;BME280;41837;55.700;37.984;2023-08-17T03:49:26;100797.97;;;24.21;98.03
55932;BME280;41837;55.700;37.984;2023-08-17T03:51:52;100792.69;;;24.52;94.84
55932;BME280;41837;55.700;37.984;2023-08-17T03:54:19;100787.25;;;24.84;93.92
55932;BME280;41837;55.700;37.984;2023-08-17T03:56:46;100792.91;;;25.62;90.77
55932;BME280;41837;55.700;37.984;2023-08-17T03:59:14;100794.03;;;25.69;89.40
55932;BME280;41837;55.700;37.984;2023-08-17T04:01:40;100786.72;;;25.81;85.92
55932;BME280;41837;55.700;37.984;2023-08-17T04:04:07;100792.50;;;25.86;85.63
55932;BME280;41837;55.700;37.984;2023-08-17T04:06:34;100796.50;;;26.31;83.75
55932;BME280;41837;55.700;37.984;2023-08-17T04:09:01;100797.72;;;25.68;86.78
55932;BME280;41837;55.700;37.984;2023-08-17T04:11:28;100791.94;;;25.23;89.18
55932;BME280;41837;55.700;37.984;2023-08-17T04:13:54;100795.94;;;26.08;85.20
55932;BME280;41837;55.700;37.984;2023-08-17T04:16:20;100790.66;;;25.67;86.22
55932;BME280;41837;55.700;37.984;2023-08-17T04:18:46;100785.91;;;26.30;81.75
55932;BME280;41837;55.700;37.984;2023-08-17T04:21:12;100785.47;;;26.64;80.45
55932;BME280;41837;55.700;37.984;2023-08-17T04:23:39;100792.22;;;26.68;78.84
55932;BME280;41837;55.700;37.984;2023-08-17T04:26:05;100792.28;;;26.95;75.84
55932;BME280;41837;55.700;37.984;2023-08-17T04:28:31;100799.59;;;26.93;75.56
55932;BME280;41837;55.700;37.984;2023-08-17T04:30:57;100798.97;;;27.47;72.78
55932;BME280;41837;55.700;37.984;2023-08-17T04:33:23;100799.50;;;27.23;74.25
55932;BME280;41837;55.700;37.984;2023-08-17T04:35:52;100804.97;;;26.93;73.16
55932;BME280;41837;55.700;37.984;2023-08-17T04:38:19;100785.13;;;27.14;74.13
55932;BME280;41837;55.700;37.984;2023-08-17T04:40:46;100803.09;;;24.97;84.99
55932;BME280;41837;55.700;37.984;2023-08-17T04:43:13;100805.09;;;26.15;82.79
55932;BME280;41837;55.700;37.984;2023-08-17T04:45:39;100804.00;;;27.32;74.78
55932;BME280;41837;55.700;37.984;2023-08-17T04:48:06;100802.78;;;26.59;79.52
55932;BME280;41837;55.700;37.984;2023-08-17T04:50:32;100797.25;;;26.90;74.05
55932;BME280;41837;55.700;37.984;2023-08-17T04:52:59;100792.69;;;27.56;72.83
55932;BME280;41837;55.700;37.984;2023-08-17T04:55:25;100787.97;;;27.86;70.40
55932;BME280;41837;55.700;37.984;2023-08-17T04:57:52;100795.94;;;26.94;74.62
55932;BME280;41837;55.700;37.984;2023-08-17T05:00:18;100792.66;;;27.38;74.11
55932;BME280;41837;55.700;37.984;2023-08-17T05:02:50;100794.09;;;27.60;70.82
55932;BME280;41837;55.700;37.984;2023-08-17T05:05:16;100798.56;;;26.47;77.79
55932;BME280;41837;55.700;37.984;2023-08-17T05:07:42;100794.88;;;27.70;72.78
55932;BME280;41837;55.700;37.984;2023-08-17T05:10:09;100795.94;;;28.14;72.20
55932;BME280;41837;55.700;37.984;2023-08-17T05:12:37;100793.66;;;28.19;65.19
55932;BME280;41837;55.700;37.984;2023-08-17T05:15:04;100791.84;;;28.63;65.82
55932;BME280;41837;55.700;37.984;2023-08-17T05:17:31;100788.88;;;29.09;62.76
55932;BME280;41837;55.700;37.984;2023-08-17T05:19:57;100795.84;;;28.41;64.31
55932;BME280;41837;55.700;37.984;2023-08-17T05:22:23;100792.88;;;28.53;64.98
55932;BME280;41837;55.700;37.984;2023-08-17T05:24:50;100803.31;;;28.30;66.12
55932;BME280;41837;55.700;37.984;2023-08-17T05:27:17;100797.59;;;27.61;72.33
55932;BME280;41837;55.700;37.984;2023-08-17T05:29:44;100790.94;;;28.37;64.28
55932;BME280;41837;55.700;37.984;2023-08-17T05:32:10;100789.66;;;29.01;60.46
55932;BME280;41837;55.700;37.984;2023-08-17T05:34:37;100790.31;;;29.81;61.55
55932;BME280;41837;55.700;37.984;2023-08-17T05:37:03;100796.22;;;30.25;57.96
55932;BME280;41837;55.700;37.984;2023-08-17T05:39:30;100794.31;;;29.17;61.41
55932;BME280;41837;55.700;37.984;2023-08-17T05:41:56;100793.72;;;29.06;59.59
55932;BME280;41837;55.700;37.984;2023-08-17T05:44:22;100797.09;;;28.73;67.02
55932;BME280;41837;55.700;37.984;2023-08-17T05:46:48;100801.88;;;29.73;61.73
55932;BME280;41837;55.700;37.984;2023-08-17T05:49:14;100797.34;;;28.88;62.32
55932;BME280;41837;55.700;37.984;2023-08-17T05:51:40;100787.38;;;29.57;59.89
55932;BME280;41837;55.700;37.984;2023-08-17T05:54:07;100794.34;;;29.26;55.56
55932;BME280;41837;55.700;37.984;2023-08-17T05:56:34;100798.31;;;28.79;58.99
55932;BME280;41837;55.700;37.984;2023-08-17T05:59:00;100789.50;;;30.05;55.75
55932;BME280;41837;55.700;37.984;2023-08-17T06:01:26;100789.16;;;29.32;54.29
55932;BME280;41837;55.700;37.984;2023-08-17T06:03:52;100794.94;;;29.11;52.85
55932;BME280;41837;55.700;37.984;2023-08-17T06:06:19;100791.00;;;29.32;51.96
55932;BME280;41837;55.700;37.984;2023-08-17T06:08:45;100790.91;;;29.15;49.98
55932;BME280;41837;55.700;37.984;2023-08-17T06:11:11;100790.16;;;29.82;50.99
55932;BME280;41837;55.700;37.984;2023-08-17T06:13:38;100792.00;;;29.31;50.78
55932;BME280;41837;55.700;37.984;2023-08-17T06:16:04;100789.97;;;28.64;52.38
55932;BME280;41837;55.700;37.984;2023-08-17T06:18:31;100786.56;;;28.88;51.39
55932;BME280;41837;55.700;37.984;2023-08-17T06:20:57;100788.53;;;29.04;50.72
55932;BME280;41837;55.700;37.984;2023-08-17T06:23:24;100790.75;;;28.82;51.11
55932;BME280;41837;55.700;37.984;2023-08-17T06:25:50;100780.03;;;30.09;49.26
55932;BME280;41837;55.700;37.984;2023-08-17T06:28:17;100786.56;;;29.65;50.28
55932;BME280;41837;55.700;37.984;2023-08-17T06:30:43;100770.47;;;29.31;52.29
55932;BME280;41837;55.700;37.984;2023-08-17T06:33:09;100779.00;;;29.18;53.66
55932;BME280;41837;55.700;37.984;2023-08-17T06:35:36;100778.25;;;29.42;51.62
55932;BME280;41837;55.700;37.984;2023-08-17T06:38:02;100779.69;;;29.79;49.95
55932;BME280;41837;55.700;37.984;2023-08-17T06:40:28;100777.19;;;29.94;50.00
55932;BME280;41837;55.700;37.984;2023-08-17T06:42:54;100779.03;;;30.18;51.14
55932;BME280;41837;55.700;37.984;2023-08-17T06:45:21;100785.97;;;29.37;53.88
55932;BME280;41837;55.700;37.984;2023-08-17T06:47:48;100772.72;;;29.52;51.26
55932;BME280;41837;55.700;37.984;2023-08-17T06:50:14;100776.00;;;28.95;53.50
55932;BME280;41837;55.700;37.984;2023-08-17T06:52:40;100778.84;;;29.28;55.43
55932;BME280;41837;55.700;37.984;2023-08-17T06:55:07;100769.13;;;29.35;54.41
55932;BME280;41837;55.700;37.984;2023-08-17T06:57:35;100781.25;;;30.06;52.54
55932;BME280;41837;55.700;37.984;2023-08-17T07:00:03;100772.66;;;29.35;53.09
55932;BME280;41837;55.700;37.984;2023-08-17T07:02:32;100775.47;;;29.76;50.06
55932;BME280;41837;55.700;37.984;2023-08-17T07:04:58;100773.66;;;30.10;51.97
55932;BME280;41837;55.700;37.984;2023-08-17T07:07:25;100771.56;;;29.71;51.01
55932;BME280;41837;55.700;37.984;2023-08-17T07:09:51;100775.16;;;29.96;51.24
55932;BME280;41837;55.700;37.984;2023-08-17T07:12:17;100774.66;;;30.50;47.85
55932;BME280;41837;55.700;37.984;2023-08-17T07:14:45;100772.25;;;30.63;49.41
55932;BME280;41837;55.700;37.984;2023-08-17T07:17:11;100771.53;;;29.54;48.17
55932;BME280;41837;55.700;37.984;2023-08-17T07:19:38;100775.22;;;29.45;49.20
55932;BME280;41837;55.700;37.984;2023-08-17T07:22:04;100779.03;;;29.93;48.01
55932;BME280;41837;55.700;37.984;2023-08-17T07:24:30;100778.38;;;30.00;47.89
55932;BME280;41837;55.700;37.984;2023-08-17T07:26:57;100777.69;;;30.14;47.76
55932;BME280;41837;55.700;37.984;2023-08-17T07:29:24;100772.28;;;30.06;47.33
55932;BME280;41837;55.700;37.984;2023-08-17T07:31:50;100775.34;;;30.44;48.05
55932;BME280;41837;55.700;37.984;2023-08-17T07:34:39;100774.31;;;29.87;48.75
55932;BME280;41837;55.700;37.984;2023-08-17T07:37:06;100769.97;;;30.11;47.33
55932;BME280;41837;55.700;37.984;2023-08-17T07:39:44;100768.59;;;29.99;46.77
55932;BME280;41837;55.700;37.984;2023-08-17T07:42:12;100770.63;;;30.38;45.08
55932;BME280;41837;55.700;37.984;2023-08-17T07:44:38;100766.56;;;29.84;45.72
55932;BME280;41837;55.700;37.984;2023-08-17T07:47:06;100761.78;;;29.53;45.85
55932;BME280;41837;55.700;37.984;2023-08-17T07:49:32;100763.09;;;29.49;46.13
55932;BME280;41837;55.700;37.984;2023-08-17T07:51:59;100776.56;;;29.33;45.42
55932;BME280;41837;55.700;37.984;2023-08-17T07:54:26;100761.09;;;29.43;44.42
55932;BME280;41837;55.700;37.984;2023-08-17T07:56:52;100769.75;;;29.80;45.50
55932;BME280;41837;55.700;37.984;2023-08-17T07:59:18;100763.97;;;28.73;46.88
55932;BME280;41837;55.700;37.984;2023-08-17T08:01:45;100764.84;;;28.81;46.79
55932;BME280;41837;55.700;37.984;2023-08-17T08:04:12;100765.44;;;28.67;45.66
55932;BME280;41837;55.700;37.984;2023-08-17T08:06:38;100760.91;;;29.02;46.87
55932;BME280;41837;55.700;37.984;2023-08-17T08:09:08;100766.53;;;28.12;46.51
55932;BME280;41837;55.700;37.984;2023-08-17T08:11:34;100764.09;;;28.45;46.04
55932;BME280;41837;55.700;37.984;2023-08-17T08:14:00;100765.50;;;29.61;45.60
55932;BME280;41837;55.700;37.984;2023-08-17T08:16:27;100761.72;;;29.29;44.60
55932;BME280;41837;55.700;37.984;2023-08-17T08:18:57;100761.72;;;29.29;44.72
55932;BME280;41837;55.700;37.984;2023-08-17T08:21:23;100756.91;;;29.06;45.67
55932;BME280;41837;55.700;37.984;2023-08-17T08:23:50;100750.88;;;28.52;46.08
55932;BME280;41837;55.700;37.984;2023-08-17T08:26:16;100754.88;;;27.85;46.97
55932;BME280;41837;55.700;37.984;2023-08-17T08:28:51;100752.78;;;29.28;46.53
55932;BME280;41837;55.700;37.984;2023-08-17T08:31:18;100748.75;;;28.55;45.72
55932;BME280;41837;55.700;37.984;2023-08-17T08:33:44;100755.13;;;27.92;47.72
55932;BME280;41837;55.700;37.984;2023-08-17T08:36:11;100746.81;;;27.67;48.32
55932;BME280;41837;55.700;37.984;2023-08-17T08:38:37;100747.75;;;27.30;49.31
55932;BME280;41837;55.700;37.984;2023-08-17T08:41:05;100735.47;;;27.73;51.74
55932;BME280;41837;55.700;37.984;2023-08-17T08:43:34;100745.91;;;27.95;51.53
55932;BME280;41837;55.700;37.984;2023-08-17T08:46:01;100749.06;;;27.44;51.17
55932;BME280;41837;55.700;37.984;2023-08-17T08:48:29;100748.28;;;27.06;51.25
55932;BME280;41837;55.700;37.984;2023-08-17T08:50:55;100747.97;;;26.82;52.13
55932;BME280;41837;55.700;37.984;2023-08-17T08:53:31;100744.41;;;27.64;51.29
55932;BME280;41837;55.700;37.984;2023-08-17T08:55:59;100749.72;;;27.74;51.69
55932;BME280;41837;55.700;37.984;2023-08-17T08:58:27;100740.56;;;27.49;50.72
55932;BME280;41837;55.700;37.984;2023-08-17T09:00:57;100738.44;;;27.70;49.79
55932;BME280;41837;55.700;37.984;2023-08-17T09:03:28;100738.25;;;27.08;50.48
55932;BME280;41837;55.700;37.984;2023-08-17T09:05:55;100739.13;;;27.90;48.71
55932;BME280;41837;55.700;37.984;2023-08-17T09:08:29;100736.13;;;27.58;52.01
55932;BME280;41837;55.700;37.984;2023-08-17T09:10:56;100736.53;;;27.99;50.65
55932;BME280;41837;55.700;37.984;2023-08-17T09:13:23;100731.69;;;27.66;48.50
55932;BME280;41837;55.700;37.984;2023-08-17T09:15:49;100723.88;;;27.55;50.80
55932;BME280;41837;55.700;37.984;2023-08-17T09:18:16;100729.38;;;27.71;49.07
55932;BME280;41837;55.700;37.984;2023-08-17T09:20:45;100729.44;;;27.80;48.68
55932;BME280;41837;55.700;37.984;2023-08-17T09:23:13;100723.19;;;27.53;49.18
55932;BME280;41837;55.700;37.984;2023-08-17T09:25:41;100729.00;;;26.93;50.47
55932;BME280;41837;55.700;37.984;2023-08-17T09:28:12;100733.25;;;26.95;49.75
55932;BME280;41837;55.700;37.984;2023-08-17T09:33:31;100724.69;;;27.56;49.74
55932;BME280;41837;55.700;37.984;2023-08-17T09:35:59;100721.56;;;27.14;49.81
55932;BME280;41837;55.700;37.984;2023-08-17T09:38:26;100714.16;;;27.44;48.81
55932;BME280;41837;55.700;37.984;2023-08-17T09:40:53;100712.41;;;27.71;48.45
55932;BME280;41837;55.700;37.984;2023-08-17T09:43:20;100708.66;;;27.46;48.61
55932;BME280;41837;55.700;37.984;2023-08-17T09:45:48;100703.59;;;27.97;49.58
55932;BME280;41837;55.700;37.984;2023-08-17T09:48:17;100711.19;;;27.29;49.23
55932;BME280;41837;55.700;37.984;2023-08-17T09:50:45;100706.50;;;27.31;49.01
55932;BME280;41837;55.700;37.984;2023-08-17T09:53:13;100703.00;;;26.93;48.36
55932;BME280;41837;55.700;37.984;2023-08-17T09:55:41;100711.94;;;27.12;48.88
55932;BME280;41837;55.700;37.984;2023-08-17T09:58:09;100711.03;;;27.31;49.33
55932;BME280;41837;55.700;37.984;2023-08-17T10:00:37;100711.06;;;27.21;48.94
55932;BME280;41837;55.700;37.984;2023-08-17T10:03:04;100705.22;;;27.08;48.39
55932;BME280;41837;55.700;37.984;2023-08-17T10:05:37;100699.63;;;27.65;49.61
55932;BME280;41837;55.700;37.984;2023-08-17T10:08:10;100711.88;;;27.49;49.28
55932;BME280;41837;55.700;37.984;2023-08-17T10:10:43;100701.69;;;27.07;49.46
55932;BME280;41837;55.700;37.984;2023-08-17T10:13:23;100706.25;;;27.43;50.67
55932;BME280;41837;55.700;37.984;2023-08-17T10:18:39;100694.81;;;27.23;50.47
55932;BME280;41837;55.700;37.984;2023-08-17T10:21:23;100711.13;;;26.84;51.87
55932;BME280;41837;55.700;37.984;2023-08-17T10:23:55;100705.16;;;26.42;51.61
55932;BME280;41837;55.700;37.984;2023-08-17T10:26:23;100713.34;;;26.88;50.59
55932;BME280;41837;55.700;37.984;2023-08-17T10:28:51;100707.44;;;26.85;49.82
55932;BME280;41837;55.700;37.984;2023-08-17T10:31:19;100711.25;;;27.38;50.52
55932;BME280;41837;55.700;37.984;2023-08-17T10:33:46;100702.63;;;27.62;49.76
55932;BME280;41837;55.700;37.984;2023-08-17T10:36:17;100699.84;;;27.08;50.15
55932;BME280;41837;55.700;37.984;2023-08-17T10:38:44;100699.84;;;27.08;49.50
55932;BME280;41837;55.700;37.984;2023-08-17T10:41:13;100698.94;;;27.45;49.50
55932;BME280;41837;55.700;37.984;2023-08-17T10:43:59;100692.44;;;27.38;50.06
55932;BME280;41837;55.700;37.984;2023-08-17T10:46:53;100697.47;;;27.50;50.10
55932;BME280;41837;55.700;37.984;2023-08-17T10:49:26;100692.63;;;27.36;48.87
55932;BME280;41837;55.700;37.984;2023-08-17T10:54:58;100679.63;;;28.03;47.19
55932;BME280;41837;55.700;37.984;2023-08-17T10:57:31;100687.63;;;27.95;47.92
55932;BME280;41837;55.700;37.984;2023-08-17T11:00:18;100683.31;;;27.84;47.89
55932;BME280;41837;55.700;37.984;2023-08-17T11:03:10;100677.94;;;27.66;47.85
55932;BME280;41837;55.700;37.984;2023-08-17T11:05:48;100680.72;;;27.39;49.71
55932;BME280;41837;55.700;37.984;2023-08-17T11:11:01;100668.31;;;27.56;49.28
55932;BME280;41837;55.700;37.984;2023-08-17T11:13:34;100671.22;;;27.62;50.49
55932;BME280;41837;55.700;37.984;2023-08-17T11:16:03;100673.53;;;27.11;51.14
55932;BME280;41837;55.700;37.984;2023-08-17T11:18:33;100677.53;;;27.07;49.73
55932;BME280;41837;55.700;37.984;2023-08-17T11:21:07;100668.91;;;27.31;49.76
55932;BME280;41837;55.700;37.984;2023-08-17T11:23:35;100670.16;;;27.55;49.56
55932;BME280;41837;55.700;37.984;2023-08-17T11:26:02;100670.91;;;27.29;48.30
55932;BME280;41837;55.700;37.984;2023-08-17T11:28:31;100667.97;;;27.77;49.00
55932;BME280;41837;55.700;37.984;2023-08-17T11:31:05;100659.72;;;27.52;50.20
55932;BME280;41837;55.700;37.984;2023-08-17T11:33:32;100657.00;;;27.34;49.67
55932;BME280;41837;55.700;37.984;2023-08-17T11:36:03;100659.47;;;27.63;49.61
55932;BME280;41837;55.700;37.984;2023-08-17T11:38:36;100654.09;;;27.45;48.76
55932;BME280;41837;55.700;37.984;2023-08-17T11:41:03;100663.63;;;26.94;47.58
55932;BME280;41837;55.700;37.984;2023-08-17T11:43:32;100656.13;;;26.97;47.58
55932;BME280;41837;55.700;37.984;2023-08-17T11:46:01;100652.75;;;26.95;48.63
55932;BME280;41837;55.700;37.984;2023-08-17T11:48:28;100647.75;;;27.28;50.43
55932;BME280;41837;55.700;37.984;2023-08-17T11:50:55;100654.75;;;27.11;50.44
55932;BME280;41837;55.700;37.984;2023-08-17T11:53:21;100652.13;;;27.02;48.40
55932;BME280;41837;55.700;37.984;2023-08-17T11:55:48;100642.31;;;27.10;50.29
55932;BME280;41837;55.700;37.984;2023-08-17T11:58:14;100641.63;;;27.36;49.32
55932;BME280;41837;55.700;37.984;2023-08-17T12:00:43;100637.97;;;27.27;48.02
55932;BME280;41837;55.700;37.984;2023-08-17T12:03:18;100639.88;;;27.17;49.01
55932;BME280;41837;55.700;37.984;2023-08-17T12:05:50;100635.91;;;27.57;49.29
55932;BME280;41837;55.700;37.984;2023-08-17T12:08:22;100635.19;;;27.73;49.02
55932;BME280;41837;55.700;37.984;2023-08-17T12:10:52;100633.50;;;27.00;49.78
55932;BME280;41837;55.700;37.984;2023-08-17T12:13:34;100634.25;;;27.10;51.14
55932;BME280;41837;55.700;37.984;2023-08-17T12:16:01;100626.63;;;26.70;51.37
55932;BME280;41837;55.700;37.984;2023-08-17T12:18:28;100631.38;;;26.76;51.81
55932;BME280;41837;55.700;37.984;2023-08-17T12:20:58;100634.84;;;26.86;51.96
55932;BME280;41837;55.700;37.984;2023-08-17T12:23:24;100631.13;;;27.15;50.82
55932;BME280;41837;55.700;37.984;2023-08-17T12:25:55;100637.09;;;26.91;49.89
55932;BME280;41837;55.700;37.984;2023-08-17T12:28:23;100625.28;;;27.29;49.51
55932;BME280;41837;55.700;37.984;2023-08-17T12:30:58;100624.00;;;27.24;49.63
55932;BME280;41837;55.700;37.984;2023-08-17T12:33:34;100622.78;;;27.54;50.11
55932;BME280;41837;55.700;37.984;2023-08-17T12:36:01;100611.66;;;27.13;50.39
55932;BME280;41837;55.700;37.984;2023-08-17T12:38:27;100600.84;;;27.23;50.45
55932;BME280;41837;55.700;37.984;2023-08-17T12:40:54;100598.03;;;27.24;50.60
55932;BME280;41837;55.700;37.984;2023-08-17T12:43:21;100599.41;;;27.28;50.29
55932;BME280;41837;55.700;37.984;2023-08-17T12:45:47;100602.81;;;27.21;49.63
55932;BME280;41837;55.700;37.984;2023-08-17T12:48:14;100597.13;;;27.33;50.17
55932;BME280;41837;55.700;37.984;2023-08-17T12:50:40;100599.84;;;27.24;49.84
55932;BME280;41837;55.700;37.984;2023-08-17T12:53:07;100590.13;;;27.23;50.06